Date,TemperatureHighF,TemperatureAvgF,TemperatureLowF,DewpointHighF,DewpointAvgF,DewpointLowF,HumidityHigh,HumidityAvg,HumidityLow,PressureMaxIn,PressureMinIn,WindSpeedMaxMPH,WindSpeedAvgMPH,GustSpeedMaxMPH,PrecipitationSumIn
2013-2-1,52.9,45.3,35.3,48.5,42.4,33.1,95,90,74,30.10,30.02,0,0,0,0.02
2013-2-2,43.0,37.6,32.6,41.5,36.0,31.0,96,94,92,30.09,29.95,0,0,0,0.00
2013-2-3,49.9,43.1,37.8,46.4,41.0,36.0,95,92,86,30.00,29.89,0,0,0,0.07
2013-2-4,51.5,46.4,43.9,46.3,43.4,41.6,94,89,79,29.89,29.57,0,0,0,0.00
2013-2-5,51.7,46.9,44.1,45.6,42.9,40.8,92,86,75,29.62,29.52,0,0,0,0.04
2013-2-6,49.3,46.0,43.9,43.4,41.1,39.4,88,83,74,29.73,29.48,0,0,0,0.05
2013-2-7,49.0,42.3,31.5,41.4,37.5,28.7,91,83,65,29.89,29.49,0,0,0,0.20
2013-2-8,45.2,36.1,26.6,39.7,32.8,24.4,94,88,77,30.01,29.89,0,0,0,0.00
2013-2-9,45.4,41.3,39.2,42.9,39.0,36.5,94,92,89,30.04,29.95,0,0,0,0.10
2013-2-10,45.4,39.0,31.1,41.5,36.5,29.6,95,91,84,30.08,30.02,0,0,0,0.00
2013-2-11,45.7,42.2,39.6,43.1,39.8,37.4,93,91,89,30.05,30.02,0,0,0,0.04
2013-2-12,49.9,46.0,41.9,46.5,43.4,39.7,94,90,87,30.09,29.96,0,0,0,0.00
2013-2-13,50.6,46.1,43.2,45.9,42.9,40.2,93,89,83,30.20,29.98,0,0,0,0.03
2013-2-14,51.1,46.0,42.5,46.4,42.9,39.5,93,89,82,30.26,30.18,0,0,0,0.04
2013-2-15,53.1,44.0,34.9,47.0,40.3,33.0,95,87,76,30.25,29.87,0,0,0,0.00
2013-2-16,47.5,42.5,34.9,45.4,39.3,32.5,95,88,77,29.89,29.82,0,0,0,0.28
2013-2-17,47.9,42.1,36.0,41.9,38.5,32.8,93,87,77,29.94,29.81,0,0,0,0.04
2013-2-18,48.6,40.1,32.8,41.7,35.8,30.7,93,85,75,29.81,29.45,0,0,0,0.00
2013-2-19,49.9,41.3,32.8,38.3,34.5,28.9,90,78,57,29.71,29.44,0,0,0,0.00
2013-2-20,46.4,38.8,31.7,40.6,35.4,28.9,92,88,77,29.74,29.68,0,0,0,0.01
2013-2-21,44.3,41.3,38.3,41.0,38.5,35.4,92,90,85,29.76,29.69,0,0,0,0.09
2013-2-22,45.7,41.4,35.1,42.2,38.3,32.8,93,89,82,29.73,29.35,0,0,0,0.56
2013-2-23,49.1,41.4,36.4,42.6,36.8,33.8,94,84,64,30.06,29.59,0,0,0,0.19
2013-2-24,49.3,43.7,39.1,40.6,38.0,35.6,89,80,70,30.07,29.63,0,0,0,0.00
2013-2-25,50.8,44.6,41.2,43.9,36.8,31.3,89,75,50,30.00,29.58,0,0,0,0.11
2013-2-26,49.7,42.4,33.5,39.0,34.4,29.2,88,74,62,30.04,29.88,0,0,0,0.00
2013-2-27,53.6,45.3,40.7,42.9,39.3,36.3,90,80,60,29.99,29.89,0,0,0,0.11
2013-2-28,52.2,45.7,40.9,49.6,43.2,37.8,93,91,87,29.99,29.88,0,0,0,0.37